sensor_id;sensor_type;location;lat;lon;timestamp;temperature;humidity
59208;DHT22;44977;53.132;6.408;2023-05-17T00:00:17;9.80;99.90
59208;DHT22;44977;53.132;6.408;2023-05-17T00:05:18;9.70;99.90
59208;DHT22;44977;53.132;6.408;2023-05-17T00:10:19;9.60;99.90
59208;DHT22;44977;53.132;6.408;2023-05-17T00:15:19;9.60;99.90
59208;DHT22;44977;53.132;6.408;2023-05-17T00:20:20;9.50;99.90
59208;DHT22;44977;53.132;6.408;2023-05-17T00:25:21;9.40;99.90
59208;DHT22;44977;53.132;6.408;2023-05-17T00:30:22;9.40;99.90
59208;DHT22;44977;53.132;6.408;2023-05-17T00:35:22;9.30;99.90
59208;DHT22;44977;53.132;6.408;2023-05-17T00:40:23;9.30;99.90
59208;DHT22;44977;53.132;6.408;2023-05-17T00:45:24;9.30;99.90
59208;DHT22;44977;53.132;6.408;2023-05-17T00:50:24;9.30;99.90
59208;DHT22;44977;53.132;6.408;2023-05-17T00:55:25;9.20;99.90
59208;DHT22;44977;53.132;6.408;2023-05-17T01:00:26;9.20;99.90
59208;DHT22;44977;53.132;6.408;2023-05-17T01:05:28;9.20;99.90
59208;DHT22;44977;53.132;6.408;2023-05-17T01:15:59;9.20;99.90
59208;DHT22;44977;53.132;6.408;2023-05-17T01:21:16;9.10;99.90
59208;DHT22;44977;53.132;6.408;2023-05-17T01:26:37;9.00;99.90
59208;DHT22;44977;53.132;6.408;2023-05-17T01:31:39;9.00;99.90
59208;DHT22;44977;53.132;6.408;2023-05-17T01:36:41;9.10;99.90
59208;DHT22;44977;53.132;6.408;2023-05-17T01:41:45;9.10;99.90
59208;DHT22;44977;53.132;6.408;2023-05-17T01:46:51;9.00;99.90
59208;DHT22;44977;53.132;6.408;2023-05-17T01:52:17;9.00;99.90
59208;DHT22;44977;53.132;6.408;2023-05-17T01:57:21;8.90;99.90
59208;DHT22;44977;53.132;6.408;2023-05-17T02:02:24;8.90;99.90
59208;DHT22;44977;53.132;6.408;2023-05-17T02:07:25;8.90;99.90
59208;DHT22;44977;53.132;6.408;2023-05-17T02:12:25;8.90;99.90
59208;DHT22;44977;53.132;6.408;2023-05-17T02:17:26;8.80;99.90
59208;DHT22;44977;53.132;6.408;2023-05-17T02:22:27;8.80;99.90
59208;DHT22;44977;53.132;6.408;2023-05-17T02:27:27;8.80;99.90
59208;DHT22;44977;53.132;6.408;2023-05-17T02:32:29;8.70;99.90
59208;DHT22;44977;53.132;6.408;2023-05-17T02:37:30;8.70;99.90
59208;DHT22;44977;53.132;6.408;2023-05-17T02:42:30;8.60;99.90
59208;DHT22;44977;53.132;6.408;2023-05-17T02:47:31;8.70;99.90
59208;DHT22;44977;53.132;6.408;2023-05-17T02:52:32;8.70;99.90
59208;DHT22;44977;53.132;6.408;2023-05-17T02:57:32;8.70;99.90
59208;DHT22;44977;53.132;6.408;2023-05-17T03:02:33;8.70;99.90
59208;DHT22;44977;53.132;6.408;2023-05-17T03:07:34;8.60;99.90
59208;DHT22;44977;53.132;6.408;2023-05-17T03:12:35;8.70;99.90
59208;DHT22;44977;53.132;6.408;2023-05-17T03:17:36;8.60;99.90
59208;DHT22;44977;53.132;6.408;2023-05-17T03:22:36;8.60;99.90
59208;DHT22;44977;53.132;6.408;2023-05-17T03:27:37;8.60;99.90
59208;DHT22;44977;53.132;6.408;2023-05-17T03:32:38;8.50;99.90
59208;DHT22;44977;53.132;6.408;2023-05-17T03:37:39;8.50;99.90
59208;DHT22;44977;53.132;6.408;2023-05-17T03:42:40;8.40;99.90
59208;DHT22;44977;53.132;6.408;2023-05-17T03:47:41;8.40;99.90
59208;DHT22;44977;53.132;6.408;2023-05-17T03:52:42;8.40;99.90
59208;DHT22;44977;53.132;6.408;2023-05-17T03:57:43;8.40;99.90
59208;DHT22;44977;53.132;6.408;2023-05-17T04:02:43;8.40;99.90
59208;DHT22;44977;53.132;6.408;2023-05-17T04:07:44;8.40;99.90
59208;DHT22;44977;53.132;6.408;2023-05-17T04:12:45;8.40;99.90
59208;DHT22;44977;53.132;6.408;2023-05-17T04:17:45;8.40;99.90
59208;DHT22;44977;53.132;6.408;2023-05-17T04:22:46;8.50;99.90
59208;DHT22;44977;53.132;6.408;2023-05-17T04:27:47;8.40;99.90
59208;DHT22;44977;53.132;6.408;2023-05-17T04:32:47;8.40;99.90
59208;DHT22;44977;53.132;6.408;2023-05-17T04:37:49;8.40;99.90
59208;DHT22;44977;53.132;6.408;2023-05-17T04:42:50;8.50;99.90
59208;DHT22;44977;53.132;6.408;2023-05-17T04:47:51;8.50;99.90
59208;DHT22;44977;53.132;6.408;2023-05-17T04:52:52;8.50;99.90
59208;DHT22;44977;53.132;6.408;2023-05-17T04:57:53;8.50;99.90
59208;DHT22;44977;53.132;6.408;2023-05-17T05:02:53;8.60;99.90
59208;DHT22;44977;53.132;6.408;2023-05-17T05:07:54;8.60;99.90
59208;DHT22;44977;53.132;6.408;2023-05-17T05:12:55;8.60;99.90
59208;DHT22;44977;53.132;6.408;2023-05-17T05:17:57;8.70;99.90
59208;DHT22;44977;53.132;6.408;2023-05-17T05:22:58;8.70;99.90
59208;DHT22;44977;53.132;6.408;2023-05-17T05:28:00;8.70;99.90
59208;DHT22;44977;53.132;6.408;2023-05-17T05:33:00;8.80;99.90
59208;DHT22;44977;53.132;6.408;2023-05-17T05:38:02;8.90;99.90
59208;DHT22;44977;53.132;6.408;2023-05-17T05:43:03;8.90;99.90
59208;DHT22;44977;53.132;6.408;2023-05-17T05:48:04;9.00;99.90
59208;DHT22;44977;53.132;6.408;2023-05-17T05:53:06;9.10;99.90
59208;DHT22;44977;53.132;6.408;2023-05-17T05:58:07;9.10;99.90
59208;DHT22;44977;53.132;6.408;2023-05-17T06:03:08;9.20;99.90
59208;DHT22;44977;53.132;6.408;2023-05-17T06:08:09;9.30;99.90
59208;DHT22;44977;53.132;6.408;2023-05-17T06:13:09;9.30;99.90
59208;DHT22;44977;53.132;6.408;2023-05-17T06:18:13;9.40;99.90
59208;DHT22;44977;53.132;6.408;2023-05-17T06:23:14;9.40;99.90
59208;DHT22;44977;53.132;6.408;2023-05-17T06:28:15;9.50;99.90
59208;DHT22;44977;53.132;6.408;2023-05-17T06:33:16;9.50;99.90
59208;DHT22;44977;53.132;6.408;2023-05-17T06:38:17;9.50;99.90
59208;DHT22;44977;53.132;6.408;2023-05-17T06:43:17;9.60;99.90
59208;DHT22;44977;53.132;6.408;2023-05-17T06:48:18;9.60;99.90
59208;DHT22;44977;53.132;6.408;2023-05-17T06:53:19;9.70;99.90
59208;DHT22;44977;53.132;6.408;2023-05-17T06:58:20;9.80;99.90
59208;DHT22;44977;53.132;6.408;2023-05-17T07:03:21;9.90;99.90
59208;DHT22;44977;53.132;6.408;2023-05-17T07:08:21;10.20;99.90
59208;DHT22;44977;53.132;6.408;2023-05-17T07:13:22;10.40;99.90
59208;DHT22;44977;53.132;6.408;2023-05-17T07:18:23;10.40;99.90
59208;DHT22;44977;53.132;6.408;2023-05-17T07:23:24;10.50;99.90
59208;DHT22;44977;53.132;6.408;2023-05-17T07:28:24;10.50;99.90
59208;DHT22;44977;53.132;6.408;2023-05-17T07:33:25;10.50;99.90
59208;DHT22;44977;53.132;6.408;2023-05-17T07:38:26;10.50;99.90
59208;DHT22;44977;53.132;6.408;2023-05-17T07:43:27;10.50;99.90
59208;DHT22;44977;53.132;6.408;2023-05-17T07:48:27;10.50;99.80
59208;DHT22;44977;53.132;6.408;2023-05-17T07:53:28;10.60;97.60
59208;DHT22;44977;53.132;6.408;2023-05-17T07:58:29;10.70;96.90
59208;DHT22;44977;53.132;6.408;2023-05-17T08:03:30;10.90;94.90
59208;DHT22;44977;53.132;6.408;2023-05-17T08:08:30;11.10;95.20
59208;DHT22;44977;53.132;6.408;2023-05-17T08:13:31;11.20;94.60
59208;DHT22;44977;53.132;6.408;2023-05-17T08:18:32;11.30;94.70
59208;DHT22;44977;53.132;6.408;2023-05-17T08:23:33;11.30;95.70
59208;DHT22;44977;53.132;6.408;2023-05-17T08:28:34;11.30;96.00
59208;DHT22;44977;53.132;6.408;2023-05-17T08:33:34;11.30;97.30
59208;DHT22;44977;53.132;6.408;2023-05-17T08:38:35;11.30;97.80
59208;DHT22;44977;53.132;6.408;2023-05-17T08:43:36;11.50;99.10
59208;DHT22;44977;53.132;6.408;2023-05-17T08:48:37;11.60;98.00
59208;DHT22;44977;53.132;6.408;2023-05-17T08:53:41;11.60;97.40
59208;DHT22;44977;53.132;6.408;2023-05-17T08:58:42;11.70;93.60
59208;DHT22;44977;53.132;6.408;2023-05-17T09:03:46;11.70;91.20
59208;DHT22;44977;53.132;6.408;2023-05-17T09:08:51;11.90;89.10
59208;DHT22;44977;53.132;6.408;2023-05-17T09:13:52;12.10;88.10
59208;DHT22;44977;53.132;6.408;2023-05-17T09:18:54;12.10;90.00
59208;DHT22;44977;53.132;6.408;2023-05-17T09:23:55;12.20;91.00
59208;DHT22;44977;53.132;6.408;2023-05-17T09:28:55;12.20;91.10
59208;DHT22;44977;53.132;6.408;2023-05-17T09:33:58;12.20;90.70
59208;DHT22;44977;53.132;6.408;2023-05-17T09:39:00;12.20;90.40
59208;DHT22;44977;53.132;6.408;2023-05-17T09:44:05;12.20;90.70
59208;DHT22;44977;53.132;6.408;2023-05-17T09:49:07;12.40;86.40
59208;DHT22;44977;53.132;6.408;2023-05-17T09:54:09;12.50;85.00
59208;DHT22;44977;53.132;6.408;2023-05-17T09:59:12;12.50;85.90
59208;DHT22;44977;53.132;6.408;2023-05-17T10:04:13;12.70;84.50
59208;DHT22;44977;53.132;6.408;2023-05-17T10:09:15;12.80;81.30
59208;DHT22;44977;53.132;6.408;2023-05-17T10:14:22;12.70;81.40
59208;DHT22;44977;53.132;6.408;2023-05-17T10:19:24;13.00;84.40
59208;DHT22;44977;53.132;6.408;2023-05-17T10:24:26;13.20;87.60
59208;DHT22;44977;53.132;6.408;2023-05-17T10:29:30;13.40;83.10
59208;DHT22;44977;53.132;6.408;2023-05-17T10:34:33;13.50;83.60
59208;DHT22;44977;53.132;6.408;2023-05-17T10:39:34;13.50;79.30
59208;DHT22;44977;53.132;6.408;2023-05-17T10:44:37;13.50;78.10
59208;DHT22;44977;53.132;6.408;2023-05-17T10:49:38;13.50;80.50
59208;DHT22;44977;53.132;6.408;2023-05-17T10:54:42;13.70;82.20
59208;DHT22;44977;53.132;6.408;2023-05-17T10:59:57;13.90;76.50
59208;DHT22;44977;53.132;6.408;2023-05-17T11:04:58;13.90;79.10
59208;DHT22;44977;53.132;6.408;2023-05-17T11:15:15;14.10;81.30
59208;DHT22;44977;53.132;6.408;2023-05-17T11:25:36;14.10;77.10
59208;DHT22;44977;53.132;6.408;2023-05-17T11:30:41;14.00;76.40
59208;DHT22;44977;53.132;6.408;2023-05-17T11:35:43;14.20;78.00
59208;DHT22;44977;53.132;6.408;2023-05-17T11:40:45;14.10;73.90
59208;DHT22;44977;53.132;6.408;2023-05-17T11:45:51;14.00;74.80
59208;DHT22;44977;53.132;6.408;2023-05-17T11:50:53;14.20;76.20
59208;DHT22;44977;53.132;6.408;2023-05-17T11:55:56;14.10;75.50
59208;DHT22;44977;53.132;6.408;2023-05-17T12:00:57;14.20;76.00
59208;DHT22;44977;53.132;6.408;2023-05-17T12:06:09;14.10;74.60
59208;DHT22;44977;53.132;6.408;2023-05-17T12:11:13;14.10;75.70
59208;DHT22;44977;53.132;6.408;2023-05-17T12:16:15;14.30;73.90
59208;DHT22;44977;53.132;6.408;2023-05-17T12:21:17;14.20;70.70
59208;DHT22;44977;53.132;6.408;2023-05-17T12:26:20;14.30;72.40
59208;DHT22;44977;53.132;6.408;2023-05-17T12:31:27;14.40;71.90
59208;DHT22;44977;53.132;6.408;2023-05-17T12:36:29;14.30;69.90
59208;DHT22;44977;53.132;6.408;2023-05-17T12:41:31;14.30;70.20
59208;DHT22;44977;53.132;6.408;2023-05-17T12:46:32;14.20;70.10
59208;DHT22;44977;53.132;6.408;2023-05-17T12:51:44;14.50;70.00
59208;DHT22;44977;53.132;6.408;2023-05-17T12:56:44;14.70;71.40
59208;DHT22;44977;53.132;6.408;2023-05-17T13:01:47;14.60;68.50
59208;DHT22;44977;53.132;6.408;2023-05-17T13:06:56;14.60;69.30
59208;DHT22;44977;53.132;6.408;2023-05-17T13:16:59;14.80;68.30
59208;DHT22;44977;53.132;6.408;2023-05-17T13:22:01;14.80;67.90
59208;DHT22;44977;53.132;6.408;2023-05-17T13:27:03;14.90;70.30
59208;DHT22;44977;53.132;6.408;2023-05-17T13:32:05;14.80;70.50
59208;DHT22;44977;53.132;6.408;2023-05-17T13:37:07;14.80;70.30
59208;DHT22;44977;53.132;6.408;2023-05-17T13:42:08;14.60;68.40
59208;DHT22;44977;53.132;6.408;2023-05-17T13:47:10;14.50;71.00
59208;DHT22;44977;53.132;6.408;2023-05-17T13:52:11;14.40;69.50
59208;DHT22;44977;53.132;6.408;2023-05-17T13:57:12;14.50;70.80
59208;DHT22;44977;53.132;6.408;2023-05-17T14:02:13;14.40;70.20
59208;DHT22;44977;53.132;6.408;2023-05-17T14:07:14;14.40;73.00
59208;DHT22;44977;53.132;6.408;2023-05-17T14:12:15;14.60;72.80
59208;DHT22;44977;53.132;6.408;2023-05-17T14:17:16;14.70;72.50
59208;DHT22;44977;53.132;6.408;2023-05-17T14:22:16;14.70;73.40
59208;DHT22;44977;53.132;6.408;2023-05-17T14:27:17;14.60;74.60
59208;DHT22;44977;53.132;6.408;2023-05-17T14:32:18;14.50;72.60
59208;DHT22;44977;53.132;6.408;2023-05-17T14:37:18;14.50;72.60
59208;DHT22;44977;53.132;6.408;2023-05-17T14:42:21;14.30;72.90
59208;DHT22;44977;53.132;6.408;2023-05-17T14:47:22;14.10;72.40
59208;DHT22;44977;53.132;6.408;2023-05-17T14:52:22;14.00;73.00
59208;DHT22;44977;53.132;6.408;2023-05-17T14:57:23;13.90;75.10
59208;DHT22;44977;53.132;6.408;2023-05-17T15:02:24;13.90;74.00
59208;DHT22;44977;53.132;6.408;2023-05-17T15:07:25;13.80;72.30
59208;DHT22;44977;53.132;6.408;2023-05-17T15:12:26;13.70;73.20
59208;DHT22;44977;53.132;6.408;2023-05-17T15:17:26;13.60;73.40
59208;DHT22;44977;53.132;6.408;2023-05-17T15:22:27;13.50;73.90
59208;DHT22;44977;53.132;6.408;2023-05-17T15:27:28;13.50;75.80
59208;DHT22;44977;53.132;6.408;2023-05-17T15:32:29;13.50;75.20
59208;DHT22;44977;53.132;6.408;2023-05-17T15:37:30;13.40;72.70
59208;DHT22;44977;53.132;6.408;2023-05-17T15:42:32;13.40;71.70
59208;DHT22;44977;53.132;6.408;2023-05-17T15:47:33;13.40;71.80
59208;DHT22;44977;53.132;6.408;2023-05-17T15:52:33;13.30;72.20
59208;DHT22;44977;53.132;6.408;2023-05-17T15:57:34;13.30;73.90
59208;DHT22;44977;53.132;6.408;2023-05-17T16:02:35;13.20;75.40
59208;DHT22;44977;53.132;6.408;2023-05-17T16:07:35;13.20;76.10
59208;DHT22;44977;53.132;6.408;2023-05-17T16:12:36;13.20;76.90
59208;DHT22;44977;53.132;6.408;2023-05-17T16:17:37;13.10;76.20
59208;DHT22;44977;53.132;6.408;2023-05-17T16:22:44;13.10;75.70
59208;DHT22;44977;53.132;6.408;2023-05-17T16:27:46;13.10;76.50
59208;DHT22;44977;53.132;6.408;2023-05-17T16:32:47;13.00;77.10
59208;DHT22;44977;53.132;6.408;2023-05-17T16:37:49;12.90;73.50
59208;DHT22;44977;53.132;6.408;2023-05-17T16:42:50;12.80;75.50
59208;DHT22;44977;53.132;6.408;2023-05-17T16:47:51;12.60;74.80
59208;DHT22;44977;53.132;6.408;2023-05-17T16:52:51;12.60;76.30
59208;DHT22;44977;53.132;6.408;2023-05-17T16:57:52;12.50;75.00
59208;DHT22;44977;53.132;6.408;2023-05-17T17:02:53;12.30;76.10
59208;DHT22;44977;53.132;6.408;2023-05-17T17:07:54;12.40;76.90
59208;DHT22;44977;53.132;6.408;2023-05-17T17:12:54;12.50;76.30
59208;DHT22;44977;53.132;6.408;2023-05-17T17:17:55;12.50;76.10
59208;DHT22;44977;53.132;6.408;2023-05-17T17:22:56;12.50;74.70
59208;DHT22;44977;53.132;6.408;2023-05-17T17:27:57;12.40;75.40
59208;DHT22;44977;53.132;6.408;2023-05-17T17:32:57;12.40;76.50
59208;DHT22;44977;53.132;6.408;2023-05-17T17:37:58;12.30;76.30
59208;DHT22;44977;53.132;6.408;2023-05-17T17:42:59;12.20;77.90
59208;DHT22;44977;53.132;6.408;2023-05-17T17:48:00;12.20;77.30
59208;DHT22;44977;53.132;6.408;2023-05-17T17:53:00;12.10;78.20
59208;DHT22;44977;53.132;6.408;2023-05-17T17:58:01;12.10;76.30
59208;DHT22;44977;53.132;6.408;2023-05-17T18:03:02;12.00;77.20
59208;DHT22;44977;53.132;6.408;2023-05-17T18:08:03;11.90;78.50
59208;DHT22;44977;53.132;6.408;2023-05-17T18:13:03;11.90;77.70
59208;DHT22;44977;53.132;6.408;2023-05-17T18:18:04;11.70;80.10
59208;DHT22;44977;53.132;6.408;2023-05-17T18:23:05;11.70;80.50
59208;DHT22;44977;53.132;6.408;2023-05-17T18:28:06;11.60;80.60
59208;DHT22;44977;53.132;6.408;2023-05-17T18:33:07;11.50;79.50
59208;DHT22;44977;53.132;6.408;2023-05-17T18:38:08;11.40;80.30
59208;DHT22;44977;53.132;6.408;2023-05-17T18:43:09;11.30;80.80
59208;DHT22;44977;53.132;6.408;2023-05-17T18:48:09;11.20;81.00
59208;DHT22;44977;53.132;6.408;2023-05-17T18:53:10;11.00;81.50
59208;DHT22;44977;53.132;6.408;2023-05-17T18:58:12;11.00;81.90
59208;DHT22;44977;53.132;6.408;2023-05-17T19:03:13;10.90;82.30
59208;DHT22;44977;53.132;6.408;2023-05-17T19:08:14;10.90;82.70
59208;DHT22;44977;53.132;6.408;2023-05-17T19:13:15;10.90;83.60
59208;DHT22;44977;53.132;6.408;2023-05-17T19:18:16;10.80;84.00
59208;DHT22;44977;53.132;6.408;2023-05-17T19:23:16;10.70;84.00
59208;DHT22;44977;53.132;6.408;2023-05-17T19:28:17;10.70;84.30
59208;DHT22;44977;53.132;6.408;2023-05-17T19:33:18;10.60;84.40
59208;DHT22;44977;53.132;6.408;2023-05-17T19:38:19;10.50;85.40
59208;DHT22;44977;53.132;6.408;2023-05-17T19:43:20;10.50;86.10
59208;DHT22;44977;53.132;6.408;2023-05-17T19:48:20;10.40;86.50
59208;DHT22;44977;53.132;6.408;2023-05-17T19:53:23;10.30;87.90
59208;DHT22;44977;53.132;6.408;2023-05-17T19:58:25;10.20;88.10
59208;DHT22;44977;53.132;6.408;2023-05-17T20:03:27;10.10;88.80
59208;DHT22;44977;53.132;6.408;2023-05-17T20:08:28;10.10;89.70
59208;DHT22;44977;53.132;6.408;2023-05-17T20:13:28;10.00;90.00
59208;DHT22;44977;53.132;6.408;2023-05-17T20:18:30;10.00;90.80
59208;DHT22;44977;53.132;6.408;2023-05-17T20:23:32;9.90;90.70
59208;DHT22;44977;53.132;6.408;2023-05-17T20:28:33;9.90;90.90
59208;DHT22;44977;53.132;6.408;2023-05-17T20:33:33;9.80;91.60
59208;DHT22;44977;53.132;6.408;2023-05-17T20:38:34;9.80;92.50
59208;DHT22;44977;53.132;6.408;2023-05-17T20:43:35;9.70;92.40
59208;DHT22;44977;53.132;6.408;2023-05-17T20:48:36;9.80;92.10
59208;DHT22;44977;53.132;6.408;2023-05-17T20:53:39;9.80;92.30
59208;DHT22;44977;53.132;6.408;2023-05-17T20:58:40;9.70;92.10
59208;DHT22;44977;53.132;6.408;2023-05-17T21:03:41;9.70;92.10
59208;DHT22;44977;53.132;6.408;2023-05-17T21:08:42;9.70;92.40
59208;DHT22;44977;53.132;6.408;2023-05-17T21:13:43;9.60;93.20
59208;DHT22;44977;53.132;6.408;2023-05-17T21:18:43;9.60;93.30
59208;DHT22;44977;53.132;6.408;2023-05-17T21:23:44;9.60;93.40
59208;DHT22;44977;53.132;6.408;2023-05-17T21:28:45;9.50;94.40
59208;DHT22;44977;53.132;6.408;2023-05-17T21:33:45;9.50;94.50
59208;DHT22;44977;53.132;6.408;2023-05-17T21:38:46;9.50;94.60
59208;DHT22;44977;53.132;6.408;2023-05-17T21:43:48;9.50;95.00
59208;DHT22;44977;53.132;6.408;2023-05-17T21:48:48;9.50;95.70
59208;DHT22;44977;53.132;6.408;2023-05-17T21:53:49;9.40;94.90
59208;DHT22;44977;53.132;6.408;2023-05-17T21:58:50;9.30;95.90
59208;DHT22;44977;53.132;6.408;2023-05-17T22:03:51;9.30;96.50
59208;DHT22;44977;53.132;6.408;2023-05-17T22:08:52;9.20;97.10
59208;DHT22;44977;53.132;6.408;2023-05-17T22:13:53;9.20;96.70
59208;DHT22;44977;53.132;6.408;2023-05-17T22:18:54;9.10;97.80
59208;DHT22;44977;53.132;6.408;2023-05-17T22:23:55;9.10;98.40
59208;DHT22;44977;53.132;6.408;2023-05-17T22:28:56;9.10;99.10
59208;DHT22;44977;53.132;6.408;2023-05-17T22:33:56;9.10;99.60
59208;DHT22;44977;53.132;6.408;2023-05-17T22:39:00;9.00;99.90
59208;DHT22;44977;53.132;6.408;2023-05-17T22:44:01;8.90;99.90
59208;DHT22;44977;53.132;6.408;2023-05-17T22:49:01;8.90;99.90
59208;DHT22;44977;53.132;6.408;2023-05-17T22:54:02;8.90;99.90
59208;DHT22;44977;53.132;6.408;2023-05-17T22:59:03;8.80;99.90
59208;DHT22;44977;53.132;6.408;2023-05-17T23:04:04;8.80;99.90
59208;DHT22;44977;53.132;6.408;2023-05-17T23:09:04;8.80;99.90
59208;DHT22;44977;53.132;6.408;2023-05-17T23:14:05;8.80;99.90
59208;DHT22;44977;53.132;6.408;2023-05-17T23:19:06;8.80;99.90
59208;DHT22;44977;53.132;6.408;2023-05-17T23:24:08;8.80;99.90
59208;DHT22;44977;53.132;6.408;2023-05-17T23:29:08;8.70;99.90
59208;DHT22;44977;53.132;6.408;2023-05-17T23:34:10;8.70;99.90
59208;DHT22;44977;53.132;6.408;2023-05-17T23:39:10;8.70;99.90
59208;DHT22;44977;53.132;6.408;2023-05-17T23:44:11;8.70;99.90
59208;DHT22;44977;53.132;6.408;2023-05-17T23:49:13;8.70;99.90
59208;DHT22;44977;53.132;6.408;2023-05-17T23:54:14;8.60;99.90
59208;DHT22;44977;53.132;6.408;2023-05-17T23:59:15;8.60;99.90
